Time;durP1;ratioP1;P1;durP2;ratioP2;P2;SDS_P1;SDS_P2;PMS_P1;PMS_P2;Temp;Humidity;BMP_temperature;BMP_pressure;BME280_temperature;BME280_humidity;BME280_pressure;Samples;Min_cycle;Max_cycle;Signal;HPM_P1;HPM_P2
2021/07/25 00:00:42;;;;;;;25.40;23.10;;;20.40;99.90;;;;;;5102130;28;20250;-70
2021/07/25 00:03:09;;;;;;;25.97;23.47;;;20.50;99.90;;;;;;5104296;28;20450;-70
2021/07/25 00:05:35;;;;;;;26.73;24.00;;;20.40;99.90;;;;;;5108039;28;20475;-70
2021/07/25 00:08:01;;;;;;;24.80;22.30;;;20.50;99.90;;;;;;5102109;28;20467;-70
2021/07/25 00:10:27;;;;;;;26.73;24.03;;;20.40;99.90;;;;;;5102603;28;20422;-70
2021/07/25 00:12:53;;;;;;;28.07;25.30;;;20.40;99.90;;;;;;5106984;28;20186;-77
2021/07/25 00:15:19;;;;;;;25.67;22.87;;;20.40;99.90;;;;;;5100190;28;20184;-70
2021/07/25 00:17:44;;;;;;;26.07;23.13;;;20.40;99.90;;;;;;5112229;28;20497;-70
2021/07/25 00:20:11;;;;;;;25.30;22.70;;;20.40;99.90;;;;;;5103797;28;20509;-70
2021/07/25 00:22:36;;;;;;;25.37;22.17;;;20.40;99.90;;;;;;5094711;28;20241;-70
2021/07/25 00:25:09;;;;;;;26.07;23.70;;;20.40;99.90;;;;;;5094696;28;20909;-70
2021/07/25 00:27:40;;;;;;;23.37;21.17;;;20.40;99.90;;;;;;5112562;28;20156;-70
2021/07/25 00:30:15;;;;;;;24.10;21.60;;;20.30;99.90;;;;;;5106486;28;20749;-70
2021/07/25 00:32:41;;;;;;;23.60;21.30;;;20.30;99.90;;;;;;5104331;28;21012;-72
2021/07/25 00:35:08;;;;;;;23.90;21.40;;;20.30;99.90;;;;;;5102655;28;20402;-70
2021/07/25 00:37:34;;;;;;;24.67;22.00;;;20.30;99.90;;;;;;5103021;28;20769;-70
2021/07/25 00:40:00;;;;;;;25.03;22.63;;;20.30;99.90;;;;;;5097152;28;20409;-71
2021/07/25 00:42:35;;;;;;;24.73;22.33;;;20.20;99.90;;;;;;5094682;28;20951;-70
2021/07/25 00:45:01;;;;;;;23.90;21.57;;;20.30;99.90;;;;;;5093470;28;20456;-70
2021/07/25 00:47:26;;;;;;;25.30;22.67;;;20.30;99.90;;;;;;5093054;28;20423;-70
2021/07/25 00:49:52;;;;;;;23.33;20.97;;;20.30;99.90;;;;;;5094488;28;20584;-70
2021/07/25 00:52:18;;;;;;;22.60;20.50;;;20.30;99.90;;;;;;5093446;28;20194;-70
2021/07/25 00:54:43;;;;;;;25.10;22.57;;;20.20;99.90;;;;;;5094520;28;20169;-70
2021/07/25 00:57:09;;;;;;;26.10;23.30;;;20.20;99.90;;;;;;5093388;28;20294;-70
2021/07/25 00:59:35;;;;;;;26.30;23.50;;;20.20;99.90;;;;;;5094656;28;20178;-70
2021/07/25 01:02:00;;;;;;;25.00;22.57;;;20.30;99.90;;;;;;5093454;28;20576;-70
2021/07/25 01:04:35;;;;;;;25.00;22.60;;;20.30;99.90;;;;;;5093044;28;20214;-70
2021/07/25 01:07:16;;;;;;;25.43;23.00;;;20.30;99.90;;;;;;5093129;28;20207;-70
2021/07/25 01:09:42;;;;;;;26.27;23.47;;;20.30;99.90;;;;;;5094327;28;20407;-70
2021/07/25 01:12:16;;;;;;;25.20;22.70;;;20.30;99.90;;;;;;5093919;28;20398;-70
2021/07/25 01:14:44;;;;;;;25.30;22.80;;;20.30;99.90;;;;;;5094707;28;20175;-70
2021/07/25 01:17:30;;;;;;;24.87;22.27;;;20.30;99.90;;;;;;5092969;28;20766;-70
2021/07/25 01:19:58;;;;;;;24.77;22.17;;;20.30;99.90;;;;;;5093718;28;20414;-77
2021/07/25 01:22:24;;;;;;;24.70;22.07;;;20.30;99.90;;;;;;5093735;28;20418;-70
2021/07/25 01:24:50;;;;;;;23.93;21.70;;;20.30;99.90;;;;;;5093794;28;20402;-70
2021/07/25 01:27:26;;;;;;;26.80;23.87;;;20.30;99.90;;;;;;5093050;28;20538;-70
2021/07/25 01:29:54;;;;;;;24.07;21.73;;;20.40;99.90;;;;;;5093441;28;20755;-70
2021/07/25 01:32:20;;;;;;;25.97;23.47;;;20.30;99.90;;;;;;5092605;28;20418;-70
2021/07/25 01:34:48;;;;;;;27.03;24.23;;;20.40;99.90;;;;;;5093666;28;20509;-70
2021/07/25 01:37:17;;;;;;;28.00;25.10;;;20.40;99.90;;;;;;5092816;28;20413;-70
2021/07/25 01:39:43;;;;;;;28.03;25.17;;;20.40;99.90;;;;;;5093602;28;20413;-70
2021/07/25 01:42:09;;;;;;;28.03;25.10;;;20.40;99.90;;;;;;5091566;28;20777;-70
2021/07/25 01:44:34;;;;;;;27.70;24.83;;;20.40;99.90;;;;;;5093165;28;20462;-70
2021/07/25 01:47:00;;;;;;;28.20;25.47;;;20.40;99.90;;;;;;5092567;28;20454;-77
2021/07/25 01:49:26;;;;;;;25.23;22.73;;;20.40;99.90;;;;;;5092969;28;20188;-70
2021/07/25 01:51:51;;;;;;;24.00;21.60;;;20.40;99.90;;;;;;5093371;28;20190;-70
2021/07/25 01:54:17;;;;;;;23.40;21.10;;;20.40;99.90;;;;;;5092540;28;20628;-70
2021/07/25 01:56:43;;;;;;;22.50;20.30;;;20.30;99.90;;;;;;5092757;28;20176;-70
2021/07/25 01:59:08;;;;;;;22.50;20.20;;;20.30;99.90;;;;;;5092482;28;20176;-70
2021/07/25 02:01:34;;;;;;;23.23;20.10;;;20.30;99.90;;;;;;5092862;28;20777;-70
2021/07/25 02:04:00;;;;;;;21.97;19.77;;;20.30;99.90;;;;;;5092662;28;20177;-77
2021/07/25 02:06:25;;;;;;;21.97;19.77;;;20.30;99.90;;;;;;5092694;28;20200;-70
2021/07/25 02:08:51;;;;;;;22.80;20.37;;;20.30;99.90;;;;;;5091680;28;20628;-70
2021/07/25 02:11:18;;;;;;;21.50;19.33;;;20.30;99.90;;;;;;5092185;28;20177;-70
2021/07/25 02:13:43;;;;;;;22.53;20.20;;;20.40;99.90;;;;;;5092585;28;20534;-70
2021/07/25 02:16:09;;;;;;;21.17;19.07;;;20.30;99.90;;;;;;5091921;28;20422;-70
2021/07/25 02:18:35;;;;;;;21.90;19.80;;;20.40;99.90;;;;;;5092892;28;20321;-70
2021/07/25 02:21:00;;;;;;;21.07;19.07;;;20.40;99.90;;;;;;5092452;28;20184;-77
2021/07/25 02:23:26;;;;;;;21.70;19.60;;;20.40;99.90;;;;;;5092449;28;20176;-70
2021/07/25 02:25:52;;;;;;;22.00;19.70;;;20.30;99.90;;;;;;5092702;28;20648;-70
2021/07/25 02:28:17;;;;;;;22.30;20.00;;;20.40;99.90;;;;;;5091710;28;20184;-70
2021/07/25 02:30:43;;;;;;;23.30;19.93;;;20.30;99.90;;;;;;5092352;28;20172;-70
2021/07/25 02:33:10;;;;;;;22.73;20.33;;;20.40;99.90;;;;;;5091485;28;20245;-70
2021/07/25 02:35:35;;;;;;;24.20;21.70;;;20.40;99.90;;;;;;5092598;28;20215;-70
2021/07/25 02:38:01;;;;;;;24.43;21.97;;;20.40;99.90;;;;;;5091817;28;20438;-76
2021/07/25 02:40:27;;;;;;;23.23;20.90;;;20.40;99.90;;;;;;5092521;28;20652;-70
2021/07/25 02:42:53;;;;;;;23.80;21.57;;;20.40;99.90;;;;;;5092612;28;20600;-70
2021/07/25 02:45:19;;;;;;;21.93;19.73;;;20.40;99.90;;;;;;5091192;28;20855;-70
2021/07/25 02:47:45;;;;;;;23.47;21.27;;;20.40;99.90;;;;;;5092223;28;20195;-70
2021/07/25 02:50:11;;;;;;;23.67;21.33;;;20.40;99.90;;;;;;5090082;28;20410;-70
2021/07/25 02:52:37;;;;;;;24.20;21.70;;;20.40;99.90;;;;;;5091776;28;20179;-70
2021/07/25 02:55:03;;;;;;;25.40;22.90;;;20.40;99.90;;;;;;5092003;28;20836;-76
2021/07/25 02:57:29;;;;;;;23.63;21.43;;;20.40;99.90;;;;;;5092099;28;20172;-70
2021/07/25 02:59:55;;;;;;;22.70;20.30;;;20.40;99.90;;;;;;5091752;28;20410;-70
2021/07/25 03:02:20;;;;;;;24.43;22.03;;;20.40;99.90;;;;;;5091353;28;20721;-70
2021/07/25 03:04:47;;;;;;;25.10;22.60;;;20.30;99.90;;;;;;5092170;28;20179;-71
2021/07/25 03:07:14;;;;;;;25.40;22.40;;;20.30;99.90;;;;;;5091427;28;20238;-70
2021/07/25 03:09:40;;;;;;;26.17;23.40;;;20.30;99.90;;;;;;5092006;28;20410;-70
2021/07/25 03:12:06;;;;;;;24.30;21.97;;;20.30;99.90;;;;;;5090954;28;20517;-76
2021/07/25 03:14:32;;;;;;;23.33;21.10;;;20.30;99.90;;;;;;5091916;28;20616;-70
2021/07/25 03:16:57;;;;;;;24.37;21.87;;;20.20;99.90;;;;;;5092120;28;20421;-70
2021/07/25 03:19:23;;;;;;;24.57;20.97;;;20.20;99.90;;;;;;5091102;28;20492;-70
2021/07/25 03:21:49;;;;;;;22.90;20.43;;;20.10;99.90;;;;;;5090879;28;20247;-70
2021/07/25 03:24:14;;;;;;;21.20;19.20;;;20.20;99.90;;;;;;5091268;28;20251;-70
2021/07/25 03:26:40;;;;;;;21.80;19.70;;;20.20;99.90;;;;;;5090321;28;20249;-70
2021/07/25 03:29:06;;;;;;;21.40;19.20;;;20.20;99.90;;;;;;5091045;28;20183;-77
2021/07/25 03:31:32;;;;;;;21.27;19.27;;;20.10;99.90;;;;;;5091873;28;20233;-70
2021/07/25 03:33:59;;;;;;;20.70;18.60;;;20.10;99.90;;;;;;5091824;28;20177;-70
2021/07/25 03:36:26;;;;;;;21.20;19.10;;;20.10;99.90;;;;;;5123531;28;20172;-70
2021/07/25 03:38:52;;;;;;;21.43;19.20;;;20.00;99.90;;;;;;5092033;28;20399;-70
2021/07/25 03:41:18;;;;;;;22.33;20.20;;;20.00;99.90;;;;;;5090841;28;20414;-70
2021/07/25 03:43:43;;;;;;;22.00;19.80;;;20.00;99.90;;;;;;5091659;28;20195;-70
2021/07/25 03:46:09;;;;;;;24.03;21.57;;;20.00;99.90;;;;;;5091104;28;20434;-71
2021/07/25 03:48:35;;;;;;;24.53;22.00;;;20.00;99.90;;;;;;5073812;28;20666;-70
2021/07/25 03:51:01;;;;;;;25.47;22.90;;;20.00;99.90;;;;;;5091921;28;20406;-70
2021/07/25 03:53:27;;;;;;;25.10;22.57;;;19.90;99.90;;;;;;5091023;28;20407;-70
2021/07/25 03:55:53;;;;;;;25.90;23.10;;;19.80;99.90;;;;;;5091592;28;20425;-70
2021/07/25 03:58:19;;;;;;;24.23;21.83;;;19.80;99.90;;;;;;5123292;28;20666;-70
2021/07/25 04:00:44;;;;;;;25.33;21.23;;;19.80;99.90;;;;;;5091745;28;20180;-70
2021/07/25 04:03:10;;;;;;;21.60;19.50;;;19.70;99.90;;;;;;5090922;28;20177;-71
2021/07/25 04:05:36;;;;;;;22.30;20.20;;;19.70;99.90;;;;;;5094007;28;20562;-70
2021/07/25 04:08:10;;;;;;;21.73;19.53;;;19.70;99.90;;;;;;5095191;28;20221;-70
2021/07/25 04:10:42;;;;;;;22.93;20.50;;;19.70;99.90;;;;;;5128240;27;20185;-70
2021/07/25 04:13:09;;;;;;;23.40;19.90;;;19.70;99.90;;;;;;5094758;28;20399;-76
2021/07/25 04:15:42;;;;;;;22.50;20.33;;;19.50;99.90;;;;;;5095104;28;20457;-70
2021/07/25 04:18:08;;;;;;;22.40;20.17;;;19.40;99.90;;;;;;5094499;28;20497;-77
2021/07/25 04:20:34;;;;;;;21.77;19.77;;;19.40;99.90;;;;;;5095282;28;20548;-70
2021/07/25 04:23:02;;;;;;;23.80;20.40;;;19.30;99.90;;;;;;5095086;28;20399;-70
2021/07/25 04:25:29;;;;;;;21.60;19.30;;;19.40;99.90;;;;;;5093909;28;20465;-70
2021/07/25 04:27:59;;;;;;;22.00;19.70;;;19.50;99.90;;;;;;5094793;28;20498;-70
2021/07/25 04:30:27;;;;;;;21.97;19.67;;;19.50;99.90;;;;;;5094746;28;20406;-70
2021/07/25 04:32:54;;;;;;;21.03;18.83;;;19.50;99.90;;;;;;5094776;28;20804;-70
2021/07/25 04:35:21;;;;;;;21.10;18.93;;;19.60;99.90;;;;;;5094711;28;20498;-70
2021/07/25 04:37:52;;;;;;;22.73;20.53;;;19.60;99.90;;;;;;5095277;28;20417;-70
2021/07/25 04:40:18;;;;;;;21.73;19.63;;;19.70;99.90;;;;;;5094088;28;20406;-70
2021/07/25 04:42:48;;;;;;;21.20;19.07;;;19.70;99.90;;;;;;5094760;28;20914;-71
2021/07/25 04:45:17;;;;;;;20.33;18.30;;;19.80;99.90;;;;;;5093227;28;20489;-71
2021/07/25 04:48:08;;;;;;;19.97;17.93;;;19.80;99.90;;;;;;5107520;28;20783;-72
2021/07/25 04:50:41;;;;;;;20.70;18.60;;;19.80;99.90;;;;;;5099233;28;20446;-71
2021/07/25 04:53:16;;;;;;;20.50;18.50;;;19.90;99.90;;;;;;5097444;28;20398;-71
2021/07/25 04:55:42;;;;;;;20.03;18.07;;;19.90;99.90;;;;;;5084792;28;20421;-71
2021/07/25 04:58:09;;;;;;;20.00;18.00;;;19.90;99.90;;;;;;5094064;28;20426;-73
2021/07/25 05:00:40;;;;;;;19.17;17.40;;;20.00;99.90;;;;;;5094801;28;20395;-71
2021/07/25 05:03:07;;;;;;;22.47;18.53;;;20.00;99.90;;;;;;5094953;28;20429;-71
2021/07/25 05:05:34;;;;;;;21.30;19.07;;;20.00;99.90;;;;;;5094383;28;20446;-71
2021/07/25 05:08:01;;;;;;;21.03;18.93;;;20.00;99.90;;;;;;5094660;28;20413;-71
2021/07/25 05:10:28;;;;;;;20.90;18.87;;;20.00;99.90;;;;;;5092909;28;20426;-71
2021/07/25 05:13:17;;;;;;;20.80;18.80;;;20.00;99.90;;;;;;5093764;28;20415;-71
2021/07/25 05:15:45;;;;;;;20.20;18.13;;;20.00;99.90;;;;;;5075453;28;20426;-71
2021/07/25 05:18:39;;;;;;;19.43;17.73;;;20.00;99.90;;;;;;5093490;28;20422;-77
2021/07/25 05:21:23;;;;;;;18.97;17.17;;;20.10;99.90;;;;;;5093087;28;20426;-71
2021/07/25 05:23:54;;;;;;;18.73;16.90;;;20.20;99.90;;;;;;5073912;28;20403;-71
2021/07/25 05:26:25;;;;;;;18.10;16.50;;;20.20;99.90;;;;;;5072838;28;20452;-71
2021/07/25 05:28:57;;;;;;;19.33;17.33;;;20.20;99.90;;;;;;5073721;28;20766;-71
2021/07/25 05:31:32;;;;;;;18.23;16.40;;;20.30;99.90;;;;;;5072793;28;20404;-71
2021/07/25 05:33:58;;;;;;;16.80;15.30;;;20.30;99.90;;;;;;5077134;28;20495;-71
2021/07/25 05:36:24;;;;;;;16.47;14.87;;;20.30;99.90;;;;;;5092936;28;20414;-71
2021/07/25 05:38:50;;;;;;;15.93;14.43;;;20.30;99.90;;;;;;5093613;28;20762;-71
2021/07/25 05:41:15;;;;;;;17.40;15.73;;;20.30;99.90;;;;;;5092892;28;20186;-72
2021/07/25 05:43:41;;;;;;;16.40;14.70;;;20.20;99.90;;;;;;5092979;28;20615;-72
2021/07/25 05:46:07;;;;;;;15.53;14.10;;;20.20;99.90;;;;;;5093801;28;20207;-71
2021/07/25 05:48:32;;;;;;;16.47;14.87;;;20.20;99.90;;;;;;5092436;28;20192;-71
2021/07/25 05:51:02;;;;;;;16.37;14.83;;;20.20;99.90;;;;;;5093401;28;20172;-72
2021/07/25 05:53:29;;;;;;;15.60;14.30;;;20.20;99.90;;;;;;5091669;28;20534;-71
2021/07/25 05:55:54;;;;;;;16.80;15.20;;;20.30;99.90;;;;;;5093658;28;20430;-71
2021/07/25 05:58:20;;;;;;;16.80;15.20;;;20.30;99.90;;;;;;5092179;28;20458;-72
2021/07/25 06:00:46;;;;;;;15.47;14.07;;;20.40;99.90;;;;;;5092095;28;20176;-71
2021/07/25 06:03:12;;;;;;;15.10;13.77;;;20.40;99.90;;;;;;5093254;28;20509;-78
2021/07/25 06:05:38;;;;;;;15.20;13.87;;;20.40;99.90;;;;;;5092724;28;20192;-71
2021/07/25 06:08:06;;;;;;;14.73;13.43;;;20.40;99.90;;;;;;5092643;28;20434;-71
2021/07/25 06:10:33;;;;;;;14.97;13.67;;;20.50;99.90;;;;;;5091647;28;20187;-71
2021/07/25 06:13:04;;;;;;;13.23;12.10;;;20.40;99.90;;;;;;5092938;28;20421;-71
2021/07/25 06:15:32;;;;;;;14.80;13.50;;;20.40;99.90;;;;;;5091807;28;20433;-70
2021/07/25 06:18:01;;;;;;;12.60;11.50;;;20.50;99.90;;;;;;5092992;28;20409;-70
2021/07/25 06:20:31;;;;;;;13.77;12.53;;;20.50;99.90;;;;;;5091770;28;20406;-70
2021/07/25 06:22:58;;;;;;;13.13;11.83;;;20.50;99.90;;;;;;5092705;28;20519;-70
2021/07/25 06:25:26;;;;;;;13.60;12.20;;;20.50;99.90;;;;;;5091952;28;20450;-71
2021/07/25 06:27:55;;;;;;;12.37;11.37;;;20.60;99.90;;;;;;5092035;28;20801;-69
2021/07/25 06:30:23;;;;;;;11.10;10.27;;;20.60;99.90;;;;;;5091834;28;20471;-69
2021/07/25 06:33:02;;;;;;;12.23;11.23;;;20.70;99.90;;;;;;5092728;28;20771;-70
2021/07/25 06:35:35;;;;;;;11.37;10.40;;;20.70;99.90;;;;;;5092392;28;20445;-69
2021/07/25 06:38:04;;;;;;;12.10;11.00;;;20.70;99.90;;;;;;5093232;28;20412;-69
2021/07/25 06:40:30;;;;;;;10.80;9.90;;;20.70;99.90;;;;;;5092711;28;20521;-70
2021/07/25 06:42:57;;;;;;;10.20;9.33;;;20.70;99.90;;;;;;5092716;28;20417;-72
2021/07/25 06:45:24;;;;;;;11.73;10.77;;;20.60;99.90;;;;;;5073183;28;20463;-70
2021/07/25 06:47:51;;;;;;;11.60;10.40;;;20.50;99.90;;;;;;5091530;28;20446;-71
2021/07/25 06:50:25;;;;;;;10.53;9.63;;;20.60;99.90;;;;;;5091740;28;20987;-78
2021/07/25 06:52:52;;;;;;;11.57;10.00;;;20.60;99.90;;;;;;5092541;28;20502;-71
2021/07/25 06:55:19;;;;;;;10.63;9.83;;;20.70;99.90;;;;;;5091842;28;20430;-78
2021/07/25 06:57:45;;;;;;;11.23;10.27;;;20.80;99.90;;;;;;5092392;28;20414;-71
2021/07/25 07:00:12;;;;;;;11.43;10.43;;;20.80;99.90;;;;;;5091942;28;20922;-71
2021/07/25 07:02:56;;;;;;;10.30;9.53;;;20.90;99.90;;;;;;5090486;28;20422;-71
2021/07/25 07:05:23;;;;;;;10.63;9.83;;;20.90;99.90;;;;;;5091100;28;20471;-71
2021/07/25 07:07:51;;;;;;;9.73;9.03;;;21.00;99.90;;;;;;5092299;28;20418;-71
2021/07/25 07:10:19;;;;;;;10.47;9.70;;;21.00;99.90;;;;;;5091905;28;20435;-79
2021/07/25 07:12:45;;;;;;;9.23;8.53;;;21.10;99.90;;;;;;5091892;28;20433;-70
2021/07/25 07:15:12;;;;;;;9.90;8.97;;;21.00;99.90;;;;;;5092382;28;20921;-71
2021/07/25 07:17:39;;;;;;;9.07;8.37;;;21.10;99.90;;;;;;5091184;28;20422;-71
2021/07/25 07:20:09;;;;;;;11.07;10.07;;;21.20;99.90;;;;;;5092471;28;20940;-71
2021/07/25 07:22:36;;;;;;;9.97;9.17;;;21.30;99.90;;;;;;5091949;28;20476;-71
2021/07/25 07:25:04;;;;;;;9.40;8.60;;;21.50;99.90;;;;;;5092527;28;20406;-71
2021/07/25 07:27:30;;;;;;;8.80;8.10;;;21.60;99.90;;;;;;5091974;28;20432;-71
2021/07/25 07:29:57;;;;;;;9.20;8.40;;;21.70;99.90;;;;;;5109336;28;20401;-70
2021/07/25 07:32:23;;;;;;;9.13;8.33;;;21.80;99.90;;;;;;5106346;28;20885;-72
2021/07/25 07:34:49;;;;;;;9.40;8.60;;;21.90;99.90;;;;;;5092034;28;20523;-71
2021/07/25 07:37:14;;;;;;;10.90;10.10;;;21.90;99.90;;;;;;5092617;28;20258;-71
2021/07/25 07:39:41;;;;;;;13.67;12.47;;;21.90;99.90;;;;;;5094169;28;20417;-71
2021/07/25 07:42:09;;;;;;;11.77;10.80;;;22.00;99.90;;;;;;5096370;28;20173;-71
2021/07/25 07:44:35;;;;;;;8.77;8.07;;;22.20;99.90;;;;;;5095445;28;20884;-71
2021/07/25 07:47:01;;;;;;;9.47;8.67;;;22.30;99.90;;;;;;5097455;28;20453;-71
2021/07/25 07:49:27;;;;;;;9.20;8.40;;;22.40;99.90;;;;;;5095360;28;20434;-71
2021/07/25 07:51:53;;;;;;;8.97;8.20;;;22.50;99.90;;;;;;5096750;28;20179;-72
2021/07/25 07:54:18;;;;;;;8.50;7.90;;;22.60;99.90;;;;;;5078033;28;20248;-80
2021/07/25 07:56:44;;;;;;;8.17;7.67;;;22.70;99.90;;;;;;5096807;28;20180;-72
2021/07/25 07:59:10;;;;;;;8.20;7.60;;;22.80;99.90;;;;;;5096432;28;20179;-72
2021/07/25 08:01:36;;;;;;;9.00;8.17;;;22.90;99.90;;;;;;5096535;28;20176;-71
2021/07/25 08:04:02;;;;;;;9.03;8.23;;;23.00;99.90;;;;;;5096452;28;20631;-72
2021/07/25 08:06:27;;;;;;;9.20;8.50;;;23.10;99.90;;;;;;5096104;28;20203;-72
2021/07/25 08:08:53;;;;;;;8.37;7.67;;;23.20;99.90;;;;;;5104390;28;20577;-72
2021/07/25 08:11:19;;;;;;;10.10;9.30;;;23.20;99.90;;;;;;5116743;28;20225;-93
2021/07/25 08:13:45;;;;;;;9.17;8.50;;;23.30;99.90;;;;;;5099218;28;20184;-72
2021/07/25 08:16:12;;;;;;;10.60;9.80;;;23.30;99.90;;;;;;5104596;28;20425;-72
2021/07/25 08:18:38;;;;;;;9.73;9.07;;;23.50;99.90;;;;;;5102618;28;20418;-72
2021/07/25 08:21:05;;;;;;;9.77;8.97;;;23.50;99.90;;;;;;5095584;28;20489;-72
2021/07/25 08:23:31;;;;;;;9.60;9.00;;;23.60;99.90;;;;;;5094270;28;20509;-72
2021/07/25 08:25:56;;;;;;;10.00;9.30;;;23.70;99.90;;;;;;5095594;28;20787;-72
2021/07/25 08:28:22;;;;;;;9.70;8.90;;;23.90;99.90;;;;;;5095510;28;20410;-73
2021/07/25 08:30:48;;;;;;;8.73;8.13;;;24.10;99.90;;;;;;5094172;28;20181;-72
2021/07/25 08:33:14;;;;;;;9.10;8.33;;;24.20;99.90;;;;;;5095528;28;20168;-72
2021/07/25 08:35:40;;;;;;;9.00;8.30;;;24.40;99.90;;;;;;5095451;28;20286;-72
2021/07/25 08:38:06;;;;;;;8.50;7.60;;;24.40;99.90;;;;;;5095454;28;20222;-72
2021/07/25 08:40:32;;;;;;;7.33;6.63;;;24.50;99.90;;;;;;5095097;28;20204;-72
2021/07/25 08:43:05;;;;;;;7.30;6.60;;;24.40;99.90;;;;;;5094099;28;20415;-72
2021/07/25 08:45:33;;;;;;;8.50;7.90;;;24.40;99.90;;;;;;5094218;28;20462;-72
2021/07/25 08:48:12;;;;;;;9.13;8.43;;;24.40;99.90;;;;;;5095393;28;20407;-72
2021/07/25 08:50:43;;;;;;;7.77;6.60;;;24.50;99.90;;;;;;5073792;28;20966;-71
2021/07/25 08:53:17;;;;;;;8.93;6.70;;;24.50;99.90;;;;;;5090149;28;20434;-72
2021/07/25 08:55:44;;;;;;;6.73;6.23;;;24.60;99.90;;;;;;5094986;28;20449;-72
2021/07/25 08:58:12;;;;;;;6.43;5.93;;;24.70;99.50;;;;;;5094946;28;20415;-71
2021/07/25 09:00:38;;;;;;;7.57;6.97;;;24.80;99.90;;;;;;5094517;28;20532;-72
2021/07/25 09:03:10;;;;;;;7.37;6.50;;;25.00;99.90;;;;;;5094019;28;20948;-72
2021/07/25 09:05:36;;;;;;;6.27;5.87;;;25.10;99.20;;;;;;5094435;28;20461;-72
2021/07/25 09:08:06;;;;;;;7.13;6.63;;;25.20;99.70;;;;;;5094480;28;20414;-72
2021/07/25 09:10:32;;;;;;;6.93;6.33;;;25.40;99.60;;;;;;5094009;28;20426;-72
2021/07/25 09:12:58;;;;;;;6.10;5.70;;;25.50;98.50;;;;;;5094710;28;20414;-72
2021/07/25 09:15:26;;;;;;;6.63;6.13;;;25.60;96.40;;;;;;5093883;28;20409;-75
2021/07/25 09:17:53;;;;;;;6.93;6.43;;;25.70;97.90;;;;;;5094379;28;20435;-72
2021/07/25 09:20:19;;;;;;;10.40;7.93;;;25.80;97.70;;;;;;5094527;28;20471;-72
2021/07/25 09:22:48;;;;;;;6.80;6.27;;;26.00;98.10;;;;;;5093837;28;20418;-72
2021/07/25 09:25:26;;;;;;;7.10;6.50;;;26.10;97.70;;;;;;5094069;28;20438;-71
2021/07/25 09:27:57;;;;;;;5.97;5.37;;;26.30;97.40;;;;;;5092719;28;20410;-76
2021/07/25 09:30:28;;;;;;;6.17;5.77;;;26.40;95.70;;;;;;5093836;28;20934;-71
2021/07/25 09:32:54;;;;;;;7.60;7.10;;;26.60;96.50;;;;;;5093507;28;20418;-71
2021/07/25 09:35:33;;;;;;;6.77;6.33;;;26.80;96.70;;;;;;5093771;28;20917;-71
2021/07/25 09:38:02;;;;;;;7.40;6.70;;;26.90;94.50;;;;;;5094091;28;20908;-71
2021/07/25 09:40:30;;;;;;;7.53;7.03;;;27.10;94.70;;;;;;5093230;28;20461;-71
2021/07/25 09:43:18;;;;;;;6.40;5.87;;;27.20;94.40;;;;;;5094002;28;20756;-71
2021/07/25 09:45:50;;;;;;;6.17;5.67;;;27.30;92.00;;;;;;5093667;28;20502;-71
2021/07/25 09:48:20;;;;;;;7.07;6.47;;;27.40;91.60;;;;;;5093930;28;20460;-71
2021/07/25 09:50:46;;;;;;;6.30;5.90;;;27.40;91.80;;;;;;5092962;28;20422;-71
2021/07/25 09:53:15;;;;;;;5.87;5.50;;;27.50;91.40;;;;;;5093525;28;20897;-71
2021/07/25 09:55:41;;;;;;;5.50;5.20;;;27.20;90.70;;;;;;5093168;28;20452;-71
2021/07/25 09:58:07;;;;;;;5.57;5.17;;;27.10;89.80;;;;;;5093557;28;20780;-71
2021/07/25 10:00:46;;;;;;;5.40;5.10;;;27.10;89.00;;;;;;5093075;28;20413;-71
2021/07/25 10:03:18;;;;;;;8.83;8.23;;;27.20;90.10;;;;;;5092916;28;20168;-71
2021/07/25 10:05:44;;;;;;;8.57;8.00;;;27.20;90.60;;;;;;5092657;28;20793;-72
2021/07/25 10:08:21;;;;;;;20.87;19.20;;;27.30;90.00;;;;;;5092843;28;20411;-72
2021/07/25 10:10:51;;;;;;;23.23;20.83;;;27.40;89.30;;;;;;5092606;28;20421;-73
2021/07/25 10:13:20;;;;;;;13.47;12.37;;;27.40;86.40;;;;;;5092481;28;20457;-72
2021/07/25 10:15:59;;;;;;;5.67;5.30;;;27.40;89.30;;;;;;5092466;28;20440;-71
2021/07/25 10:18:27;;;;;;;7.40;6.90;;;27.10;86.80;;;;;;5093391;28;20487;-71
2021/07/25 10:21:00;;;;;;;11.47;10.53;;;27.20;88.80;;;;;;5093237;28;20403;-72
2021/07/25 10:23:36;;;;;;;5.70;5.40;;;27.40;88.70;;;;;;5126283;27;20418;-72
2021/07/25 10:26:03;;;;;;;5.40;5.10;;;27.40;83.40;;;;;;5091323;28;20503;-75
2021/07/25 10:28:33;;;;;;;6.30;5.90;;;27.20;84.80;;;;;;5089866;28;20852;-71
2021/07/25 10:31:00;;;;;;;5.73;5.43;;;27.40;87.60;;;;;;5093901;28;20423;-71
2021/07/25 10:33:28;;;;;;;5.20;4.90;;;27.60;85.10;;;;;;5092563;28;20421;-70
2021/07/25 10:35:56;;;;;;;139.27;121.13;;;27.30;81.50;;;;;;5093688;28;20422;-71
2021/07/25 10:38:22;;;;;;;23.23;20.90;;;27.10;85.30;;;;;;5091804;28;20444;-71
2021/07/25 10:40:49;;;;;;;7.80;6.57;;;27.00;87.40;;;;;;5092018;28;20402;-72
2021/07/25 10:43:20;;;;;;;6.67;6.33;;;27.10;87.30;;;;;;5092744;28;20406;-71
2021/07/25 10:46:22;;;;;;;7.10;6.57;;;27.20;81.30;;;;;;5091978;28;20501;-71
2021/07/25 10:49:00;;;;;;;5.90;5.60;;;27.30;85.50;;;;;;5087247;28;20702;-71
2021/07/25 10:51:30;;;;;;;6.80;6.30;;;27.40;87.30;;;;;;5092214;28;20495;-71
2021/07/25 10:54:23;;;;;;;6.20;5.80;;;27.70;89.10;;;;;;5092624;28;20407;-72
2021/07/25 10:56:59;;;;;;;5.53;5.23;;;27.80;84.20;;;;;;5090640;28;20783;-71
2021/07/25 10:59:45;;;;;;;5.60;5.20;;;27.80;82.50;;;;;;5092329;28;20902;-71
2021/07/25 11:02:21;;;;;;;7.93;5.57;;;27.80;83.30;;;;;;5092053;28;20430;-71
2021/07/25 11:04:56;;;;;;;5.90;5.47;;;27.70;82.70;;;;;;5091438;28;20410;-72
2021/07/25 11:07:24;;;;;;;7.30;6.63;;;27.70;88.20;;;;;;5092435;28;20464;-71
2021/07/25 11:10:11;;;;;;;4.60;4.30;;;27.50;85.60;;;;;;5091101;28;20448;-72
2021/07/25 11:12:50;;;;;;;4.50;4.30;;;27.30;84.40;;;;;;5090410;28;20457;-72
2021/07/25 11:15:28;;;;;;;6.00;5.50;;;27.00;84.40;;;;;;5095988;28;20471;-72
2021/07/25 11:17:55;;;;;;;37.23;33.70;;;26.90;83.30;;;;;;5094675;28;20430;-72
2021/07/25 11:20:36;;;;;;;6.90;6.40;;;26.80;83.00;;;;;;5095850;28;20402;-75
2021/07/25 11:23:04;;;;;;;6.10;5.70;;;26.60;83.10;;;;;;5095144;28;20414;-72
2021/07/25 11:25:34;;;;;;;8.47;6.83;;;26.30;87.50;;;;;;5095662;28;20763;-78
2021/07/25 11:28:04;;;;;;;4.40;4.10;;;26.50;86.50;;;;;;5095681;28;20509;-72
2021/07/25 11:30:48;;;;;;;5.20;4.90;;;26.80;85.50;;;;;;5096053;28;20402;-79
2021/07/25 11:33:45;;;;;;;6.03;5.63;;;27.10;85.80;;;;;;5096026;28;20497;-72
2021/07/25 11:36:15;;;;;;;5.27;4.97;;;27.30;84.80;;;;;;5095651;28;20575;-72
2021/07/25 11:38:42;;;;;;;6.50;6.10;;;27.50;84.30;;;;;;5094474;28;20421;-72
2021/07/25 11:41:10;;;;;;;6.03;5.73;;;27.70;83.30;;;;;;5095983;28;20403;-72
2021/07/25 11:43:49;;;;;;;6.30;5.90;;;28.00;82.40;;;;;;5094829;28;20425;-72
2021/07/25 11:46:45;;;;;;;5.70;5.30;;;28.10;80.90;;;;;;5095330;28;20458;-72
2021/07/25 11:49:11;;;;;;;5.77;5.47;;;28.40;78.40;;;;;;5086637;28;20422;-72
2021/07/25 11:51:41;;;;;;;4.33;4.00;;;28.50;78.30;;;;;;5093143;28;20437;-72
2021/07/25 11:54:07;;;;;;;4.17;3.97;;;28.50;75.00;;;;;;5095067;28;20263;-73
2021/07/25 11:56:34;;;;;;;4.47;4.27;;;28.40;74.50;;;;;;5094431;28;20578;-79
2021/07/25 11:59:04;;;;;;;4.67;4.43;;;28.20;75.80;;;;;;5094652;28;20430;-72
2021/07/25 12:01:30;;;;;;;4.60;4.20;;;28.20;75.50;;;;;;5095579;28;20514;-72
2021/07/25 12:03:56;;;;;;;4.60;4.40;;;28.20;75.20;;;;;;5102681;28;20423;-72
2021/07/25 12:06:22;;;;;;;4.40;4.20;;;28.30;76.50;;;;;;5098151;28;20519;-72
2021/07/25 12:09:05;;;;;;;5.83;5.40;;;28.40;77.00;;;;;;5094587;28;20418;-72
2021/07/25 12:11:31;;;;;;;4.80;4.50;;;28.60;76.70;;;;;;5095340;28;20767;-72
2021/07/25 12:13:57;;;;;;;4.63;4.33;;;28.70;76.30;;;;;;5094779;28;20418;-72
2021/07/25 12:16:23;;;;;;;5.00;4.60;;;28.70;78.70;;;;;;5095506;28;20427;-70
2021/07/25 12:18:49;;;;;;;5.97;5.40;;;28.80;78.80;;;;;;5099842;28;20179;-70
2021/07/25 12:21:32;;;;;;;28.50;25.50;;;28.80;78.10;;;;;;5103901;28;20177;-70
2021/07/25 12:23:58;;;;;;;48.13;43.03;;;28.70;75.30;;;;;;5108862;28;20400;-70
2021/07/25 12:26:40;;;;;;;6.03;5.63;;;28.50;73.10;;;;;;5113209;28;20446;-70
2021/07/25 12:29:44;;;;;;;5.23;4.93;;;28.20;70.60;;;;;;5095045;28;20406;-70
2021/07/25 12:32:24;;;;;;;4.57;4.17;;;27.90;72.40;;;;;;5095022;28;20421;-70
2021/07/25 12:35:11;;;;;;;4.07;3.87;;;27.90;75.00;;;;;;5094656;28;20850;-70
2021/07/25 12:37:51;;;;;;;4.70;4.40;;;27.80;76.50;;;;;;5094658;28;20413;-70
2021/07/25 12:40:23;;;;;;;5.80;5.20;;;27.90;75.90;;;;;;5095129;28;20394;-70
2021/07/25 12:42:58;;;;;;;4.57;4.20;;;27.80;74.70;;;;;;5094102;28;20426;-70
2021/07/25 12:45:38;;;;;;;5.23;4.70;;;27.90;77.20;;;;;;5094864;28;20846;-70